Augusta, Maine
Current Conditions -  °F | °C
As of 3:04 AM on Sunday 26 Oct 2014 (Local Time) from KAUG Reporting Station
Haze Haze  
Wind Chill: 46°   Ceiling: Unl
Heat Index: 46°   Visibility: 2.5mi
Dew Point: 45°   Wind: 3mph
Humidity: 96%   Direction: 190°S
Pressure: 29.39"   Gusts: NA
Location:  44.32°N, 69.78°W
Report Text: KAUG 260704Z AUTO 19003KT 2 1/2SM BR FEW001 SCT050 SCT075 08/07 A2939 RMK AO2 VIS 1 1/2V5 T00780072
Loading
Personal Weather Stations






























Interactive Weather Map
Tropical Storm Tracking
New forecast layout! Learn more

10-Day Weather Forecast

Advertisements
Track Severe Weather on mobile